Time;durP1;ratioP1;P1;durP2;ratioP2;P2;SDS_P1;SDS_P2;PMS_P1;PMS_P2;Temp;Humidity;BMP_temperature;BMP_pressure;BME280_temperature;BME280_humidity;BME280_pressure;Samples;Min_cycle;Max_cycle;Signal;HPM_P1;HPM_P2
2022/08/27 00:01:19;;;;;;;;;;;24.80;61.40;;;;;;5026989;28;19957;-66
2022/08/27 00:03:46;;;;;;;;;;;24.80;61.40;;;;;;5030103;28;20047;-65
2022/08/27 00:06:13;;;;;;;;;;;24.80;61.40;;;;;;5023709;28;19924;-65
2022/08/27 00:08:41;;;;;;;;;;;24.80;61.40;;;;;;5028853;28;19928;-65
2022/08/27 00:11:08;;;;;;;;;;;24.80;61.40;;;;;;5024668;28;20314;-65
2022/08/27 00:13:36;;;;;;;;;;;24.80;61.40;;;;;;5026610;28;19963;-65
2022/08/27 00:16:03;;;;;;;;;;;24.80;61.40;;;;;;5027907;28;19921;-65
2022/08/27 00:18:29;;;;;;;;;;;24.80;61.40;;;;;;5028715;28;20015;-65
2022/08/27 00:20:56;;;;;;;;;;;24.70;61.30;;;;;;5026820;28;19932;-65
2022/08/27 00:23:23;;;;;;;;;;;24.70;61.30;;;;;;5029169;28;19921;-64
2022/08/27 00:25:49;;;;;;;;;;;24.70;61.30;;;;;;5027564;28;19933;-66
2022/08/27 00:28:16;;;;;;;;;;;24.70;61.30;;;;;;5028229;28;19921;-65
2022/08/27 00:30:44;;;;;;;;;;;24.70;61.30;;;;;;5028102;28;19955;-65
2022/08/27 00:33:12;;;;;;;;;;;24.70;61.30;;;;;;5026019;28;20266;-65
2022/08/27 00:35:38;;;;;;;;;;;24.70;61.30;;;;;;5028607;28;19928;-63
2022/08/27 00:38:05;;;;;;;;;;;24.70;61.30;;;;;;5030342;28;19944;-64
2022/08/27 00:40:32;;;;;;;;;;;24.70;61.20;;;;;;5027401;28;19921;-66
2022/08/27 00:43:01;;;;;;;;;;;24.70;61.20;;;;;;5030444;28;20040;-65
2022/08/27 00:45:28;;;;;;;;;;;24.70;61.20;;;;;;5029620;28;20318;-65
2022/08/27 00:47:57;;;;;;;;;;;24.70;61.20;;;;;;5024720;28;19979;-65
2022/08/27 00:50:25;;;;;;;;;;;24.60;61.10;;;;;;5042409;28;19982;-65
2022/08/27 00:52:53;;;;;;;;;;;24.60;61.00;;;;;;5025467;28;19936;-66
2022/08/27 00:55:20;;;;;;;;;;;24.60;61.00;;;;;;5026105;28;19979;-66
2022/08/27 00:57:47;;;;;;;;;;;24.60;61.10;;;;;;5028457;28;20024;-64
2022/08/27 01:00:15;;;;;;;;;;;24.60;61.00;;;;;;5026680;28;19979;-65
2022/08/27 01:02:42;;;;;;;;;;;24.60;61.00;;;;;;5028987;28;19929;-66
2022/08/27 01:05:11;;;;;;;;;;;24.60;61.00;;;;;;5027900;28;19921;-66
2022/08/27 01:07:39;;;;;;;;;;;24.60;61.00;;;;;;5028868;28;19921;-66
2022/08/27 01:10:07;;;;;;;;;;;24.60;61.00;;;;;;5023769;28;19972;-66
2022/08/27 01:12:34;;;;;;;;;;;24.60;61.00;;;;;;5028644;28;19975;-65
2022/08/27 01:15:01;;;;;;;;;;;24.60;61.10;;;;;;5026709;28;19967;-66
2022/08/27 01:17:27;;;;;;;;;;;24.60;61.80;;;;;;5027630;28;19921;-65
2022/08/27 01:19:55;;;;;;;;;;;24.60;61.00;;;;;;5025920;28;19967;-65
2022/08/27 01:22:26;;;;;;;;;;;24.60;61.10;;;;;;5027521;28;20019;-66
2022/08/27 01:24:54;;;;;;;;;;;24.60;61.10;;;;;;5022016;28;19925;-66
2022/08/27 01:27:21;;;;;;;;;;;24.60;61.10;;;;;;5029780;28;20087;-66
2022/08/27 01:29:48;;;;;;;;;;;24.60;61.20;;;;;;5028015;28;19987;-66
2022/08/27 01:32:17;;;;;;;;;;;24.60;61.20;;;;;;5025812;28;19921;-65
2022/08/27 01:34:44;;;;;;;;;;;24.60;61.20;;;;;;5028119;28;20027;-66
2022/08/27 01:37:11;;;;;;;;;;;24.60;61.20;;;;;;5027841;28;19925;-66
2022/08/27 01:39:38;;;;;;;;;;;24.50;61.10;;;;;;5029048;28;19925;-66
2022/08/27 01:42:07;;;;;;;;;;;24.50;61.10;;;;;;5025745;28;19980;-65
2022/08/27 01:44:52;;;;;;;;;;;24.50;61.10;;;;;;5028001;28;19925;-65
2022/08/27 01:47:19;;;;;;;;;;;24.50;61.20;;;;;;5017880;28;19968;-66
2022/08/27 01:49:46;;;;;;;;;;;24.50;61.10;;;;;;5026579;28;20007;-66
2022/08/27 01:52:13;;;;;;;;;;;24.50;61.20;;;;;;5019444;28;19925;-65
2022/08/27 01:54:40;;;;;;;;;;;24.50;61.20;;;;;;5027777;28;19932;-65
2022/08/27 01:57:08;;;;;;;;;;;24.50;61.20;;;;;;5027169;28;19928;-65
2022/08/27 01:59:35;;;;;;;;;;;24.50;61.20;;;;;;5023995;28;19926;-65
2022/08/27 02:02:02;;;;;;;;;;;24.50;61.20;;;;;;5026423;28;19925;-66
2022/08/27 02:04:29;;;;;;;;;;;24.50;61.30;;;;;;5028017;28;19925;-64
2022/08/27 02:06:56;;;;;;;;;;;24.50;61.20;;;;;;5053467;28;19996;-66
2022/08/27 02:09:22;;;;;;;;;;;24.50;61.20;;;;;;5027426;28;20028;-65
2022/08/27 02:11:49;;;;;;;;;;;24.50;61.30;;;;;;5052839;28;19963;-64
2022/08/27 02:14:17;;;;;;;;;;;24.50;61.20;;;;;;5050298;28;19999;-65
2022/08/27 02:16:44;;;;;;;;;;;24.50;61.30;;;;;;5052432;28;19925;-65
2022/08/27 02:19:10;;;;;;;;;;;24.50;61.20;;;;;;5052307;28;19971;-66
2022/08/27 02:21:37;;;;;;;;;;;24.50;61.20;;;;;;5024026;28;20378;-65
2022/08/27 02:24:04;;;;;;;;;;;24.50;61.20;;;;;;5026291;28;19929;-66
2022/08/27 02:26:31;;;;;;;;;;;24.50;61.10;;;;;;5024300;28;19929;-66
2022/08/27 02:28:58;;;;;;;;;;;24.50;61.10;;;;;;5029579;28;20024;-65
2022/08/27 02:31:26;;;;;;;;;;;24.50;61.10;;;;;;5022838;28;19983;-64
2022/08/27 02:33:53;;;;;;;;;;;24.50;61.20;;;;;;5030781;28;20020;-64
2022/08/27 02:36:19;;;;;;;;;;;24.40;61.00;;;;;;5028563;28;20024;-65
2022/08/27 02:38:46;;;;;;;;;;;24.40;61.00;;;;;;5028630;28;19929;-65
2022/08/27 02:41:15;;;;;;;;;;;24.40;61.00;;;;;;5029247;28;19929;-65
2022/08/27 02:43:42;;;;;;;;;;;24.40;61.00;;;;;;5030810;28;19925;-65
2022/08/27 02:46:10;;;;;;;;;;;24.40;61.00;;;;;;5029128;28;19928;-65
2022/08/27 02:48:39;;;;;;;;;;;24.40;61.00;;;;;;5028659;28;19921;-65
2022/08/27 02:51:06;;;;;;;;;;;24.40;61.00;;;;;;5027057;28;20048;-65
2022/08/27 02:53:33;;;;;;;;;;;24.40;61.00;;;;;;5031708;28;19964;-65
2022/08/27 02:56:00;;;;;;;;;;;24.40;61.00;;;;;;5029487;28;19921;-66
2022/08/27 02:58:26;;;;;;;;;;;24.40;61.00;;;;;;5030892;28;19953;-65
2022/08/27 03:00:54;;;;;;;;;;;24.40;61.00;;;;;;5028590;28;19929;-65
2022/08/27 03:03:20;;;;;;;;;;;24.40;61.00;;;;;;5029846;28;19928;-64
2022/08/27 03:05:48;;;;;;;;;;;24.40;61.00;;;;;;5030243;28;19925;-65
2022/08/27 03:08:15;;;;;;;;;;;24.40;61.00;;;;;;5029177;28;19952;-65
2022/08/27 03:10:42;;;;;;;;;;;24.30;60.90;;;;;;5030245;28;19921;-64
2022/08/27 03:13:09;;;;;;;;;;;24.30;60.90;;;;;;5028949;28;19925;-64
2022/08/27 03:15:35;;;;;;;;;;;24.30;60.90;;;;;;5027977;28;19964;-64
2022/08/27 03:18:20;;;;;;;;;;;24.30;60.90;;;;;;5029498;28;20026;-64
2022/08/27 03:20:50;;;;;;;;;;;24.30;60.90;;;;;;5027851;28;19951;-66
2022/08/27 03:23:16;;;;;;;;;;;24.30;60.90;;;;;;5028957;28;20385;-65
2022/08/27 03:25:44;;;;;;;;;;;24.30;60.90;;;;;;5029949;28;19921;-65
2022/08/27 03:28:13;;;;;;;;;;;24.30;60.90;;;;;;5052222;28;20437;-65
2022/08/27 03:30:39;;;;;;;;;;;24.30;60.90;;;;;;5019190;28;19921;-64
2022/08/27 03:33:07;;;;;;;;;;;24.30;60.90;;;;;;5027258;28;19952;-64
2022/08/27 03:35:33;;;;;;;;;;;24.30;60.90;;;;;;5029947;28;19928;-65
2022/08/27 03:38:02;;;;;;;;;;;24.30;60.90;;;;;;5055057;28;19967;-64
2022/08/27 03:40:29;;;;;;;;;;;24.30;60.90;;;;;;5030063;28;19925;-65
2022/08/27 03:42:55;;;;;;;;;;;24.30;60.80;;;;;;5025406;28;19964;-65
2022/08/27 03:45:22;;;;;;;;;;;24.30;60.80;;;;;;5023703;28;19922;-66
2022/08/27 03:47:49;;;;;;;;;;;24.30;61.00;;;;;;5040917;28;19984;-65
2022/08/27 03:50:16;;;;;;;;;;;24.30;60.70;;;;;;5027819;28;19921;-65
2022/08/27 03:52:43;;;;;;;;;;;24.30;60.70;;;;;;5028575;28;19925;-65
2022/08/27 03:55:11;;;;;;;;;;;24.30;60.70;;;;;;5027254;28;19921;-63
2022/08/27 03:57:38;;;;;;;;;;;24.30;60.70;;;;;;5026762;28;19928;-65
2022/08/27 04:00:05;;;;;;;;;;;24.30;60.70;;;;;;5029779;28;20016;-64
2022/08/27 04:02:32;;;;;;;;;;;24.30;60.70;;;;;;5022052;28;20389;-65
2022/08/27 04:04:59;;;;;;;;;;;24.30;60.60;;;;;;5029821;28;19975;-66
2022/08/27 04:07:26;;;;;;;;;;;24.30;60.70;;;;;;5025363;28;19929;-64
2022/08/27 04:10:05;;;;;;;;;;;24.30;60.60;;;;;;5027859;28;19975;-64
2022/08/27 04:12:33;;;;;;;;;;;24.30;60.60;;;;;;5029999;28;19929;-65
2022/08/27 04:15:00;;;;;;;;;;;24.30;60.60;;;;;;5029394;28;19925;-64
2022/08/27 04:17:26;;;;;;;;;;;24.30;60.60;;;;;;5029272;28;20278;-65
2022/08/27 04:19:53;;;;;;;;;;;24.30;60.60;;;;;;5029513;28;19931;-66
2022/08/27 04:22:20;;;;;;;;;;;24.30;60.50;;;;;;5025890;28;20011;-66
2022/08/27 04:24:47;;;;;;;;;;;24.30;60.60;;;;;;5028748;28;19997;-66
2022/08/27 04:27:15;;;;;;;;;;;24.20;60.40;;;;;;5028284;28;19971;-65
2022/08/27 04:29:47;;;;;;;;;;;24.30;60.60;;;;;;5039229;28;19921;-67
2022/08/27 04:32:14;;;;;;;;;;;24.30;60.60;;;;;;5025292;28;19925;-66
2022/08/27 04:34:41;;;;;;;;;;;24.20;60.40;;;;;;5028157;28;19925;-66
2022/08/27 04:37:07;;;;;;;;;;;24.20;60.40;;;;;;5027090;28;19987;-66
2022/08/27 04:39:34;;;;;;;;;;;24.20;60.40;;;;;;5027980;28;19921;-66
2022/08/27 04:42:02;;;;;;;;;;;24.20;60.40;;;;;;5025936;28;19962;-66
2022/08/27 04:44:30;;;;;;;;;;;24.30;60.40;;;;;;5028818;28;19927;-66
2022/08/27 04:46:58;;;;;;;;;;;24.20;60.40;;;;;;5027651;28;19956;-65
2022/08/27 04:49:25;;;;;;;;;;;24.20;60.30;;;;;;5022062;28;19921;-65
2022/08/27 04:51:52;;;;;;;;;;;24.20;60.30;;;;;;5024836;28;19928;-66
2022/08/27 04:54:19;;;;;;;;;;;24.20;60.30;;;;;;5028216;28;19921;-66
2022/08/27 04:56:45;;;;;;;;;;;24.20;60.30;;;;;;5026904;28;19960;-65
2022/08/27 04:59:23;;;;;;;;;;;24.20;60.30;;;;;;5026996;28;19921;-66
2022/08/27 05:01:50;;;;;;;;;;;24.20;60.30;;;;;;5029094;28;20003;-65
2022/08/27 05:04:18;;;;;;;;;;;24.20;60.20;;;;;;5029203;28;20019;-64
2022/08/27 05:06:45;;;;;;;;;;;24.20;60.20;;;;;;5027767;28;19921;-65
2022/08/27 05:09:12;;;;;;;;;;;24.20;60.10;;;;;;5026726;28;19940;-65
2022/08/27 05:11:42;;;;;;;;;;;24.20;60.10;;;;;;5023778;28;19921;-65
2022/08/27 05:14:09;;;;;;;;;;;24.20;60.10;;;;;;5028646;28;19921;-65
2022/08/27 05:16:36;;;;;;;;;;;24.20;60.00;;;;;;5027288;28;19940;-65
2022/08/27 05:19:04;;;;;;;;;;;24.20;60.00;;;;;;5025877;28;19983;-65
2022/08/27 05:21:33;;;;;;;;;;;24.10;60.00;;;;;;5028168;28;19948;-65
2022/08/27 05:24:00;;;;;;;;;;;24.20;60.00;;;;;;5025392;28;20402;-65
2022/08/27 05:26:27;;;;;;;;;;;24.20;60.00;;;;;;5027916;28;19948;-66
2022/08/27 05:28:54;;;;;;;;;;;24.10;59.90;;;;;;5029082;28;19921;-65
2022/08/27 05:31:21;;;;;;;;;;;24.10;59.90;;;;;;5026954;28;20350;-66
2022/08/27 05:33:48;;;;;;;;;;;24.10;59.90;;;;;;5028388;28;19964;-65
2022/08/27 05:36:15;;;;;;;;;;;24.10;59.90;;;;;;5027315;28;19933;-65
2022/08/27 05:38:43;;;;;;;;;;;24.10;59.90;;;;;;5026636;28;19961;-65
2022/08/27 05:41:11;;;;;;;;;;;24.10;59.90;;;;;;5028990;28;19983;-64
2022/08/27 05:43:38;;;;;;;;;;;24.10;59.90;;;;;;5024678;28;19940;-65
2022/08/27 05:46:06;;;;;;;;;;;24.10;59.80;;;;;;5022238;28;19980;-65
2022/08/27 05:48:33;;;;;;;;;;;24.10;59.80;;;;;;5023772;28;20322;-64
2022/08/27 05:51:02;;;;;;;;;;;24.10;59.80;;;;;;5027748;28;19936;-64
2022/08/27 05:53:29;;;;;;;;;;;24.10;59.80;;;;;;5027597;28;19921;-64
2022/08/27 05:55:57;;;;;;;;;;;24.10;59.80;;;;;;5027654;28;19928;-62
2022/08/27 06:01:08;;;;;;;;;;;24.00;59.70;;;;;;5024772;28;19926;-62
2022/08/27 06:03:35;;;;;;;;;;;24.10;60.00;;;;;;5027020;28;19925;-62
2022/08/27 06:06:02;;;;;;;;;;;24.10;59.80;;;;;;5026532;28;20023;-62
2022/08/27 06:08:29;;;;;;;;;;;24.00;59.70;;;;;;5012471;28;19965;-62
2022/08/27 06:10:57;;;;;;;;;;;24.00;59.70;;;;;;5032963;28;19947;-63
2022/08/27 06:13:24;;;;;;;;;;;24.00;59.70;;;;;;5028749;28;19921;-63
2022/08/27 06:15:51;;;;;;;;;;;24.00;59.70;;;;;;5026938;28;19972;-63
2022/08/27 06:18:18;;;;;;;;;;;24.00;59.70;;;;;;5023333;28;19929;-62
2022/08/27 06:20:44;;;;;;;;;;;24.00;59.70;;;;;;5028628;28;19964;-63
2022/08/27 06:23:11;;;;;;;;;;;24.00;59.70;;;;;;5027101;28;19925;-63
2022/08/27 06:25:40;;;;;;;;;;;24.00;59.70;;;;;;5044864;28;19979;-63
2022/08/27 06:28:08;;;;;;;;;;;24.00;59.60;;;;;;5028166;28;19964;-63
2022/08/27 06:30:35;;;;;;;;;;;24.00;59.60;;;;;;5034188;28;20016;-64
2022/08/27 06:33:02;;;;;;;;;;;24.00;59.60;;;;;;5031415;28;19950;-64
2022/08/27 06:35:28;;;;;;;;;;;24.00;59.60;;;;;;5021024;28;20379;-63
2022/08/27 06:37:55;;;;;;;;;;;24.00;59.50;;;;;;5050255;28;19968;-63
2022/08/27 06:40:22;;;;;;;;;;;24.00;59.60;;;;;;5030854;28;19925;-63
2022/08/27 06:42:49;;;;;;;;;;;24.00;59.50;;;;;;5030192;28;19921;-63
2022/08/27 06:45:17;;;;;;;;;;;24.00;59.50;;;;;;5032621;28;20513;-63
2022/08/27 06:47:44;;;;;;;;;;;24.00;59.50;;;;;;5032999;28;19944;-63
2022/08/27 06:50:11;;;;;;;;;;;24.00;59.60;;;;;;5031424;28;19924;-64
2022/08/27 06:52:37;;;;;;;;;;;24.00;59.60;;;;;;5036880;28;20003;-63
2022/08/27 06:55:04;;;;;;;;;;;24.00;59.50;;;;;;5037170;28;19928;-63
2022/08/27 06:57:31;;;;;;;;;;;24.00;59.60;;;;;;5025413;28;19968;-63
2022/08/27 06:59:58;;;;;;;;;;;24.00;59.60;;;;;;5028876;28;19983;-64
2022/08/27 07:02:26;;;;;;;;;;;24.00;59.50;;;;;;5031695;28;20031;-63
2022/08/27 07:04:53;;;;;;;;;;;24.00;60.10;;;;;;5030364;28;19929;-63
2022/08/27 07:07:20;;;;;;;;;;;24.00;59.50;;;;;;5027821;28;19929;-63
2022/08/27 07:09:46;;;;;;;;;;;24.00;59.60;;;;;;5026974;28;19921;-64
2022/08/27 07:12:13;;;;;;;;;;;24.00;59.50;;;;;;5030451;28;19921;-64
2022/08/27 07:14:40;;;;;;;;;;;24.00;59.50;;;;;;5031648;28;19987;-64
2022/08/27 07:17:08;;;;;;;;;;;24.00;59.50;;;;;;5030040;28;19921;-63
2022/08/27 07:19:37;;;;;;;;;;;24.00;59.50;;;;;;5060264;28;19996;-64
2022/08/27 07:22:04;;;;;;;;;;;24.00;59.60;;;;;;5031770;28;20294;-64
2022/08/27 07:24:31;;;;;;;;;;;24.00;59.50;;;;;;5028904;28;19999;-63
2022/08/27 07:26:58;;;;;;;;;;;24.00;60.20;;;;;;5028497;28;20077;-65
2022/08/27 07:29:25;;;;;;;;;;;24.00;59.50;;;;;;5025906;28;20004;-63
2022/08/27 07:31:52;;;;;;;;;;;24.00;59.60;;;;;;5029267;28;20040;-64
2022/08/27 07:34:19;;;;;;;;;;;24.00;59.60;;;;;;5030984;28;19925;-64
2022/08/27 07:36:47;;;;;;;;;;;23.90;59.50;;;;;;5023179;28;19968;-64
2022/08/27 07:39:15;;;;;;;;;;;24.00;59.60;;;;;;5019041;28;19926;-64
2022/08/27 07:44:26;;;;;;;;;;;24.00;59.60;;;;;;5018914;28;19929;-64
2022/08/27 07:46:54;;;;;;;;;;;24.00;59.70;;;;;;5017195;28;20000;-63
2022/08/27 07:49:21;;;;;;;;;;;24.00;59.70;;;;;;5027411;28;19929;-64
2022/08/27 07:51:49;;;;;;;;;;;24.00;59.70;;;;;;5027299;28;19927;-64
2022/08/27 07:54:16;;;;;;;;;;;23.90;59.50;;;;;;5027353;28;19921;-64
2022/08/27 07:56:43;;;;;;;;;;;23.90;59.50;;;;;;5026960;28;19941;-63
2022/08/27 07:59:09;;;;;;;;;;;23.90;59.40;;;;;;5023526;28;19971;-64
2022/08/27 08:01:36;;;;;;;;;;;23.90;59.40;;;;;;5028397;28;19948;-64
2022/08/27 08:04:03;;;;;;;;;;;23.90;59.40;;;;;;5026228;28;19983;-64
2022/08/27 08:06:30;;;;;;;;;;;23.90;59.40;;;;;;5026481;28;19956;-64
2022/08/27 08:08:58;;;;;;;;;;;23.90;59.40;;;;;;5027095;28;19921;-63
2022/08/27 08:11:25;;;;;;;;;;;23.90;59.40;;;;;;5027045;28;19929;-63
2022/08/27 08:13:51;;;;;;;;;;;23.90;59.30;;;;;;5031904;28;19971;-63
2022/08/27 08:16:18;;;;;;;;;;;23.90;59.30;;;;;;5029106;28;19964;-63
2022/08/27 08:18:45;;;;;;;;;;;23.90;59.30;;;;;;5028864;28;20015;-63
2022/08/27 08:21:14;;;;;;;;;;;23.90;59.30;;;;;;5005765;28;19929;-63
2022/08/27 08:23:41;;;;;;;;;;;23.90;59.30;;;;;;5024229;28;20022;-63
2022/08/27 08:26:10;;;;;;;;;;;23.90;59.30;;;;;;5025658;28;19956;-63
2022/08/27 08:28:38;;;;;;;;;;;23.90;59.30;;;;;;5021605;28;20450;-63
2022/08/27 08:31:05;;;;;;;;;;;23.90;59.30;;;;;;5014676;28;19925;-64
2022/08/27 08:33:31;;;;;;;;;;;23.90;59.40;;;;;;5026843;28;20371;-64
2022/08/27 08:36:02;;;;;;;;;;;23.90;58.80;;;;;;5023411;28;19921;-62
2022/08/27 08:38:28;;;;;;;;;;;23.90;59.20;;;;;;5021351;28;19979;-63
2022/08/27 08:40:55;;;;;;;;;;;23.90;59.20;;;;;;5027839;28;19927;-63
2022/08/27 08:43:26;;;;;;;;;;;23.90;59.10;;;;;;5021462;28;19967;-63
2022/08/27 08:45:53;;;;;;;;;;;23.90;59.10;;;;;;5025394;28;20378;-63
2022/08/27 08:48:20;;;;;;;;;;;23.90;59.10;;;;;;5023706;28;19927;-63
2022/08/27 08:50:50;;;;;;;;;;;23.90;59.10;;;;;;5028692;28;20322;-63
2022/08/27 08:53:18;;;;;;;;;;;23.90;59.00;;;;;;5027528;28;19953;-63
2022/08/27 08:55:47;;;;;;;;;;;23.90;59.10;;;;;;5054010;28;19921;-64
2022/08/27 08:58:19;;;;;;;;;;;23.90;59.00;;;;;;5027495;28;19921;-63
2022/08/27 09:00:48;;;;;;;;;;;23.90;59.00;;;;;;5028338;28;19925;-63
2022/08/27 09:03:15;;;;;;;;;;;23.90;59.10;;;;;;5027431;28;20390;-63
2022/08/27 09:05:44;;;;;;;;;;;23.90;59.00;;;;;;5028430;28;19921;-64
2022/08/27 09:08:12;;;;;;;;;;;23.90;59.00;;;;;;5027303;28;20024;-63
2022/08/27 09:10:41;;;;;;;;;;;23.90;59.00;;;;;;5022448;28;19975;-63
2022/08/27 09:13:11;;;;;;;;;;;23.90;59.00;;;;;;5032642;28;19979;-64
2022/08/27 09:15:38;;;;;;;;;;;23.90;59.00;;;;;;5023040;28;19921;-64
2022/08/27 09:18:08;;;;;;;;;;;24.00;59.00;;;;;;5028336;28;20263;-64
2022/08/27 09:20:35;;;;;;;;;;;24.00;59.00;;;;;;5026976;28;19957;-64
2022/08/27 09:23:04;;;;;;;;;;;23.90;59.00;;;;;;5011397;28;20303;-64
2022/08/27 09:25:31;;;;;;;;;;;24.00;59.00;;;;;;5026860;28;19926;-65
2022/08/27 09:27:58;;;;;;;;;;;23.90;59.00;;;;;;5017512;28;19941;-63
2022/08/27 09:30:26;;;;;;;;;;;23.90;59.00;;;;;;5021502;28;19922;-65
2022/08/27 09:32:54;;;;;;;;;;;23.90;59.00;;;;;;5020018;28;19928;-66
2022/08/27 09:35:22;;;;;;;;;;;23.90;59.00;;;;;;5029775;28;19932;-67
2022/08/27 09:37:48;;;;;;;;;;;24.00;59.10;;;;;;5028135;28;19984;-66
2022/08/27 09:40:16;;;;;;;;;;;24.00;59.20;;;;;;5026637;28;19936;-63
2022/08/27 09:42:43;;;;;;;;;;;24.00;59.20;;;;;;5018461;28;19948;-63
2022/08/27 09:45:11;;;;;;;;;;;24.00;59.20;;;;;;5030961;28;19921;-63
2022/08/27 09:47:42;;;;;;;;;;;24.00;59.20;;;;;;5036244;28;19925;-63
2022/08/27 09:50:09;;;;;;;;;;;24.00;59.30;;;;;;5029369;28;19925;-63
2022/08/27 09:52:38;;;;;;;;;;;24.00;59.30;;;;;;5021404;28;19953;-63
2022/08/27 09:55:05;;;;;;;;;;;24.00;59.30;;;;;;5019059;28;19921;-62
2022/08/27 09:57:33;;;;;;;;;;;24.00;59.30;;;;;;5014316;28;20022;-62
2022/08/27 10:00:00;;;;;;;;;;;24.00;59.40;;;;;;5023867;28;19921;-63
2022/08/27 10:02:27;;;;;;;;;;;24.00;59.40;;;;;;5016798;28;19921;-63
2022/08/27 10:04:57;;;;;;;;;;;24.10;59.40;;;;;;5033289;28;20012;-62
2022/08/27 10:07:30;;;;;;;;;;;24.10;59.40;;;;;;5064957;28;19928;-62
2022/08/27 10:10:00;;;;;;;;;;;24.10;59.40;;;;;;5063955;28;20000;-63
2022/08/27 10:12:28;;;;;;;;;;;24.10;59.40;;;;;;5032091;28;19921;-62
2022/08/27 10:14:57;;;;;;;;;;;24.10;59.40;;;;;;5026590;28;20074;-62
2022/08/27 10:17:25;;;;;;;;;;;24.10;59.40;;;;;;5032519;28;19967;-62
2022/08/27 10:19:56;;;;;;;;;;;24.10;59.30;;;;;;5026399;28;20019;-62
2022/08/27 10:22:26;;;;;;;;;;;24.10;59.30;;;;;;5055647;28;19921;-62
2022/08/27 10:24:56;;;;;;;;;;;24.10;59.30;;;;;;5023139;28;19952;-62
2022/08/27 10:27:26;;;;;;;;;;;24.10;59.20;;;;;;5063775;28;19925;-62
2022/08/27 10:29:55;;;;;;;;;;;24.10;59.10;;;;;;5022049;28;20008;-62
2022/08/27 10:32:27;;;;;;;;;;;24.10;59.10;;;;;;5028344;28;20467;-62
2022/08/27 10:34:58;;;;;;;;;;;24.10;59.00;;;;;;5023366;28;19995;-62
2022/08/27 10:37:26;;;;;;;;;;;24.10;59.00;;;;;;5011474;28;19925;-62
2022/08/27 10:39:59;;;;;;;;;;;24.10;58.90;;;;;;5018451;28;19921;-62
2022/08/27 10:42:29;;;;;;;;;;;24.10;58.90;;;;;;5026620;28;19921;-63
2022/08/27 10:44:59;;;;;;;;;;;24.10;58.90;;;;;;5021166;28;19960;-63
2022/08/27 10:47:32;;;;;;;;;;;24.10;58.80;;;;;;5012619;28;19926;-63
2022/08/27 10:50:01;;;;;;;;;;;24.10;58.90;;;;;;5021620;28;19925;-62
2022/08/27 10:52:28;;;;;;;;;;;24.10;58.80;;;;;;5028591;28;19925;-62
2022/08/27 10:54:57;;;;;;;;;;;24.10;58.70;;;;;;5020297;28;19936;-62
2022/08/27 10:57:29;;;;;;;;;;;24.10;58.70;;;;;;5064161;28;20325;-62
2022/08/27 10:59:57;;;;;;;;;;;24.10;58.60;;;;;;5055786;28;19921;-63
2022/08/27 11:02:27;;;;;;;;;;;24.10;58.50;;;;;;5013214;28;19964;-62
2022/08/27 11:04:54;;;;;;;;;;;24.10;58.40;;;;;;5020092;28;19925;-62
2022/08/27 11:07:22;;;;;;;;;;;24.10;58.30;;;;;;5060219;28;19944;-62
2022/08/27 11:09:50;;;;;;;;;;;24.10;58.30;;;;;;5018223;28;20302;-62
2022/08/27 11:12:17;;;;;;;;;;;24.10;58.20;;;;;;5060976;28;19971;-62
2022/08/27 11:14:47;;;;;;;;;;;24.10;58.20;;;;;;5027453;28;20011;-62
2022/08/27 11:17:15;;;;;;;;;;;24.10;58.10;;;;;;5029556;28;19974;-62
2022/08/27 11:19:44;;;;;;;;;;;24.10;58.10;;;;;;5028530;28;20007;-62
2022/08/27 11:22:11;;;;;;;;;;;24.10;58.00;;;;;;5030356;28;19967;-62
2022/08/27 11:24:39;;;;;;;;;;;24.10;58.00;;;;;;5029685;28;20356;-62
2022/08/27 11:27:06;;;;;;;;;;;24.10;57.90;;;;;;5054363;28;19925;-62
2022/08/27 11:29:33;;;;;;;;;;;24.10;57.90;;;;;;5051858;28;19941;-62
2022/08/27 11:32:03;;;;;;;;;;;24.10;57.80;;;;;;5029862;28;19928;-62
2022/08/27 11:34:32;;;;;;;;;;;24.10;57.80;;;;;;5043016;28;19921;-62
2022/08/27 11:37:02;;;;;;;;;;;24.10;57.80;;;;;;5014292;28;19980;-62
2022/08/27 11:39:36;;;;;;;;;;;24.10;57.70;;;;;;5016045;28;20027;-63
2022/08/27 11:42:07;;;;;;;;;;;24.10;57.60;;;;;;5056120;28;20275;-62
2022/08/27 11:44:39;;;;;;;;;;;24.10;57.50;;;;;;5013111;28;19921;-62
2022/08/27 11:47:11;;;;;;;;;;;24.10;57.40;;;;;;5059430;28;20015;-62
2022/08/27 11:49:41;;;;;;;;;;;24.10;57.40;;;;;;5035832;28;19921;-62
2022/08/27 11:52:08;;;;;;;;;;;24.10;57.20;;;;;;5049602;28;20016;-63
2022/08/27 11:54:43;;;;;;;;;;;24.10;57.20;;;;;;5018411;28;19979;-63
2022/08/27 11:57:13;;;;;;;;;;;24.10;57.10;;;;;;5010679;28;19922;-63
2022/08/27 11:59:42;;;;;;;;;;;24.10;57.10;;;;;;5020036;28;19933;-62
2022/08/27 12:02:18;;;;;;;;;;;24.10;57.10;;;;;;5026898;28;19921;-62
2022/08/27 12:04:46;;;;;;;;;;;24.10;57.10;;;;;;5024855;28;20016;-62
2022/08/27 12:07:25;;;;;;;;;;;24.10;57.00;;;;;;5018208;28;19983;-62
2022/08/27 12:09:54;;;;;;;;;;;24.10;57.00;;;;;;5019947;28;19928;-62
2022/08/27 12:12:22;;;;;;;;;;;24.10;56.90;;;;;;5030237;28;19922;-63
2022/08/27 12:14:49;;;;;;;;;;;24.10;56.90;;;;;;5026797;28;20024;-62
2022/08/27 12:17:19;;;;;;;;;;;24.10;56.90;;;;;;5048450;28;19989;-62
2022/08/27 12:19:49;;;;;;;;;;;24.10;56.80;;;;;;5018837;28;19972;-63
2022/08/27 12:22:19;;;;;;;;;;;24.10;56.80;;;;;;5054722;28;19921;-63
2022/08/27 12:24:50;;;;;;;;;;;24.10;56.70;;;;;;5011210;28;20367;-62
2022/08/27 12:27:25;;;;;;;;;;;24.10;56.80;;;;;;5054411;28;19929;-62
2022/08/27 12:29:52;;;;;;;;;;;24.10;56.80;;;;;;5019819;28;19921;-62
2022/08/27 12:32:24;;;;;;;;;;;24.10;56.70;;;;;;5027812;28;19921;-62
2022/08/27 12:34:52;;;;;;;;;;;24.10;56.70;;;;;;5012701;28;19987;-62
2022/08/27 12:37:22;;;;;;;;;;;24.10;56.70;;;;;;5029972;28;19978;-62
2022/08/27 12:39:49;;;;;;;;;;;24.10;56.70;;;;;;5050995;28;20421;-62
2022/08/27 12:42:17;;;;;;;;;;;24.10;56.60;;;;;;5044453;28;19925;-62
2022/08/27 12:44:47;;;;;;;;;;;24.10;56.60;;;;;;5029934;28;19940;-62
2022/08/27 12:47:15;;;;;;;;;;;24.10;56.50;;;;;;5061145;28;19968;-62
2022/08/27 12:49:46;;;;;;;;;;;24.10;56.50;;;;;;5024334;28;19932;-63
2022/08/27 12:52:14;;;;;;;;;;;24.10;56.50;;;;;;5061159;28;19952;-62
2022/08/27 12:55:11;;;;;;;;;;;24.10;56.40;;;;;;5096774;27;19926;-61
2022/08/27 12:57:39;;;;;;;;;;;24.10;56.40;;;;;;5114588;28;20393;-61
2022/08/27 13:00:08;;;;;;;;;;;24.10;56.40;;;;;;5122498;28;19932;-61
2022/08/27 13:02:52;;;;;;;;;;;24.10;56.40;;;;;;5103548;28;19929;-61
2022/08/27 13:05:20;;;;;;;;;;;24.10;56.40;;;;;;5104862;28;20014;-61
2022/08/27 13:07:47;;;;;;;;;;;24.10;56.40;;;;;;5106334;28;19943;-61
2022/08/27 13:10:16;;;;;;;;;;;24.20;56.40;;;;;;5118568;27;19948;-61
2022/08/27 13:12:43;;;;;;;;;;;24.20;56.40;;;;;;5105600;28;19963;-61
2022/08/27 13:15:11;;;;;;;;;;;24.10;56.20;;;;;;5104614;28;19920;-62
2022/08/27 13:17:38;;;;;;;;;;;24.20;56.20;;;;;;5105611;28;19978;-62
2022/08/27 13:20:08;;;;;;;;;;;24.20;56.10;;;;;;5114670;28;20006;-61
2022/08/27 13:22:37;;;;;;;;;;;24.10;56.10;;;;;;5100756;28;20262;-61
2022/08/27 13:25:04;;;;;;;;;;;24.20;56.20;;;;;;5087487;28;19920;-62
2022/08/27 13:27:33;;;;;;;;;;;24.20;56.20;;;;;;5102093;28;19983;-61
2022/08/27 13:30:01;;;;;;;;;;;24.20;56.30;;;;;;5105334;27;19956;-61
2022/08/27 13:32:27;;;;;;;;;;;24.20;56.20;;;;;;5102130;28;19920;-61
2022/08/27 13:34:54;;;;;;;;;;;24.20;56.20;;;;;;5112686;28;20295;-61
2022/08/27 13:37:22;;;;;;;;;;;24.20;56.20;;;;;;5103750;28;19962;-61
2022/08/27 13:39:51;;;;;;;;;;;24.20;56.20;;;;;;5122592;28;19927;-61
2022/08/27 13:42:18;;;;;;;;;;;24.20;56.20;;;;;;5105784;28;19924;-61
2022/08/27 13:44:47;;;;;;;;;;;24.20;56.10;;;;;;5120797;28;19920;-61
2022/08/27 13:47:14;;;;;;;;;;;24.20;56.20;;;;;;5116602;28;19932;-61
2022/08/27 13:49:41;;;;;;;;;;;24.20;56.20;;;;;;5118687;28;19978;-61
2022/08/27 13:52:09;;;;;;;;;;;24.20;56.80;;;;;;5118744;28;19955;-61
2022/08/27 13:54:35;;;;;;;;;;;24.20;56.10;;;;;;5110424;28;19987;-61
2022/08/27 13:57:07;;;;;;;;;;;24.30;56.20;;;;;;5101997;28;20373;-61
2022/08/27 13:59:34;;;;;;;;;;;24.30;56.20;;;;;;5116958;27;19947;-61
2022/08/27 14:02:03;;;;;;;;;;;24.30;56.00;;;;;;5124825;27;19944;-61
2022/08/27 14:04:35;;;;;;;;;;;24.30;56.00;;;;;;5117379;28;20038;-61
2022/08/27 14:07:06;;;;;;;;;;;24.30;55.90;;;;;;5096728;27;19947;-61
2022/08/27 14:09:33;;;;;;;;;;;24.30;55.90;;;;;;5079092;28;20459;-61
2022/08/27 14:12:00;;;;;;;;;;;24.30;55.90;;;;;;5081818;28;19994;-61
2022/08/27 14:14:27;;;;;;;;;;;24.30;56.00;;;;;;5087154;28;19935;-61
2022/08/27 14:16:56;;;;;;;;;;;24.30;55.90;;;;;;5089003;28;19938;-61
2022/08/27 14:19:26;;;;;;;;;;;24.30;55.90;;;;;;5085646;28;19947;-61
2022/08/27 14:21:53;;;;;;;;;;;24.30;55.90;;;;;;5100768;28;19924;-61
2022/08/27 14:24:20;;;;;;;;;;;24.30;55.80;;;;;;5090236;28;19920;-62
2022/08/27 14:26:48;;;;;;;;;;;24.30;55.90;;;;;;5107546;28;19985;-61